createdAt,value
2023-03-22T00:02:14.536Z,11.40
2023-03-22T00:04:46.258Z,9.85
2023-03-22T00:07:16.012Z,10.45
2023-03-22T00:09:43.410Z,10.60
2023-03-22T00:12:10.870Z,11.63
2023-03-22T00:14:41.511Z,12.18
2023-03-22T00:17:08.937Z,13.32
2023-03-22T00:19:37.511Z,11.65
2023-03-22T00:22:09.217Z,12.23
2023-03-22T00:24:42.697Z,12.50
2023-03-22T00:27:10.142Z,12.98
2023-03-22T00:29:37.507Z,14.77
2023-03-22T00:32:04.999Z,12.35
2023-03-22T00:34:33.726Z,14.32
2023-03-22T00:37:03.172Z,14.32
2023-03-22T00:39:30.502Z,14.02
2023-03-22T00:41:57.831Z,15.35
2023-03-22T00:44:28.725Z,14.40
2023-03-22T00:46:59.404Z,15.50
2023-03-22T00:49:27.389Z,17.30
2023-03-22T00:51:57.523Z,18.13
2023-03-22T00:54:27.614Z,20.45
2023-03-22T00:56:55.048Z,18.63
2023-03-22T00:59:23.659Z,17.75
2023-03-22T01:01:51.055Z,17.70
2023-03-22T01:04:25.962Z,16.10
2023-03-22T01:06:59.449Z,17.63
2023-03-22T01:09:29.101Z,17.67
2023-03-22T01:12:05.642Z,16.45
2023-03-22T01:14:33.238Z,17.45
2023-03-22T01:17:00.752Z,16.33
2023-03-22T01:19:31.380Z,15.23
2023-03-22T01:21:58.735Z,13.05
2023-03-22T01:24:26.274Z,14.57
2023-03-22T01:26:53.781Z,14.32
2023-03-22T01:29:21.092Z,12.80
2023-03-22T01:31:50.341Z,13.07
2023-03-22T01:34:18.851Z,13.27
2023-03-22T01:36:47.228Z,12.18
2023-03-22T01:39:15.215Z,13.02
2023-03-22T01:41:44.188Z,11.25
2023-03-22T01:44:23.101Z,11.45
2023-03-22T01:46:52.881Z,12.07
2023-03-22T01:49:27.457Z,12.30
2023-03-22T01:52:00.429Z,11.95
2023-03-22T01:54:44.850Z,10.85
2023-03-22T01:57:33.646Z,11.70
2023-03-22T02:00:04.170Z,11.45
2023-03-22T02:03:13.023Z,11.38
2023-03-22T02:05:47.914Z,12.10
2023-03-22T02:08:16.293Z,12.98
2023-03-22T02:11:00.815Z,11.70
2023-03-22T02:13:52.818Z,12.95
2023-03-22T02:16:53.859Z,13.30
2023-03-22T02:22:31.036Z,13.40
2023-03-22T02:25:20.092Z,14.05
2023-03-22T02:27:56.276Z,13.88
2023-03-22T02:30:43.030Z,15.70
2023-03-22T02:33:57.226Z,14.48
2023-03-22T02:36:36.462Z,12.85
2023-03-22T02:39:15.570Z,14.52
2023-03-22T02:42:21.239Z,13.32
2023-03-22T02:45:11.242Z,13.27
2023-03-22T02:47:56.654Z,14.10
2023-03-22T02:50:53.523Z,12.57
2023-03-22T02:53:48.020Z,13.90
2023-03-22T02:56:31.412Z,13.70
2023-03-22T02:59:04.621Z,12.50
2023-03-22T03:01:50.565Z,12.98
2023-03-22T03:04:22.304Z,13.10
2023-03-22T03:06:54.376Z,12.88
2023-03-22T03:09:26.293Z,11.48
2023-03-22T03:11:57.045Z,12.45
2023-03-22T03:14:27.772Z,11.55
2023-03-22T03:17:42.463Z,11.90
2023-03-22T03:20:30.351Z,12.07
2023-03-22T03:23:22.089Z,12.80
2023-03-22T03:26:13.762Z,12.27
2023-03-22T03:28:52.496Z,11.30
2023-03-22T03:31:32.179Z,11.23
2023-03-22T03:34:18.833Z,11.68
2023-03-22T03:37:05.677Z,11.15
2023-03-22T03:39:37.980Z,10.95
2023-03-22T03:42:07.096Z,11.35
2023-03-22T03:44:36.743Z,11.20
2023-03-22T03:47:08.039Z,10.88
2023-03-22T03:49:39.268Z,11.65
2023-03-22T03:52:06.979Z,11.63
2023-03-22T03:54:34.906Z,12.10
2023-03-22T03:57:06.823Z,11.68
2023-03-22T03:59:34.050Z,11.32
2023-03-22T04:02:07.150Z,12.70
2023-03-22T04:04:39.306Z,12.50
2023-03-22T04:07:07.292Z,10.40
2023-03-22T04:09:40.683Z,12.57
2023-03-22T04:12:16.764Z,12.27
2023-03-22T04:14:59.014Z,12.05
2023-03-22T04:17:32.173Z,13.93
2023-03-22T04:20:00.058Z,15.68
2023-03-22T04:22:27.419Z,14.35
2023-03-22T04:25:00.169Z,14.13
2023-03-22T04:27:28.217Z,13.48
2023-03-22T04:30:01.763Z,13.13
2023-03-22T04:32:48.840Z,13.55
2023-03-22T04:35:22.114Z,13.27
2023-03-22T04:37:49.437Z,13.07
2023-03-22T04:40:20.983Z,13.40
2023-03-22T04:43:11.235Z,12.77
2023-03-22T04:46:13.066Z,12.15
2023-03-22T04:48:55.972Z,12.10
2023-03-22T04:51:24.731Z,12.13
2023-03-22T04:54:08.046Z,11.18
2023-03-22T04:56:39.432Z,12.88
2023-03-22T04:59:06.805Z,11.90
2023-03-22T05:01:35.461Z,15.05
2023-03-22T05:04:11.098Z,13.20
2023-03-22T05:06:38.548Z,12.63
2023-03-22T05:09:12.810Z,13.60
2023-03-22T05:11:40.916Z,12.82
2023-03-22T05:14:19.309Z,12.88
2023-03-22T05:16:46.786Z,13.05
2023-03-22T05:19:14.253Z,12.27
2023-03-22T05:21:45.707Z,11.35
2023-03-22T05:24:13.175Z,11.55
2023-03-22T05:26:42.538Z,11.85
2023-03-22T05:29:11.899Z,11.38
2023-03-22T05:31:54.181Z,12.52
2023-03-22T05:34:22.123Z,10.88
2023-03-22T05:36:51.670Z,12.23
2023-03-22T05:39:30.310Z,11.68
2023-03-22T05:42:01.782Z,11.60
2023-03-22T05:44:29.406Z,11.10
2023-03-22T05:47:09.388Z,12.30
2023-03-22T05:49:40.398Z,11.73
2023-03-22T05:52:09.200Z,11.45
2023-03-22T05:54:48.864Z,12.43
2023-03-22T05:57:17.705Z,12.38
2023-03-22T05:59:45.056Z,13.13
2023-03-22T06:02:18.646Z,14.82
2023-03-22T06:04:46.875Z,13.23
2023-03-22T06:07:32.597Z,14.00
2023-03-22T06:11:05.491Z,17.88
2023-03-22T06:14:23.238Z,13.18
2023-03-22T06:20:19.274Z,11.65
2023-03-22T06:26:25.537Z,10.88
2023-03-22T06:28:54.019Z,11.85
2023-03-22T06:31:32.285Z,12.27
2023-03-22T06:34:23.127Z,12.73
2023-03-22T06:37:12.425Z,11.38
2023-03-22T06:45:47.134Z,8.40
2023-03-22T06:51:23.371Z,8.23
2023-03-22T07:46:32.758Z,7.78
2023-03-22T07:59:52.007Z,7.13
2023-03-22T08:02:25.185Z,6.88
2023-03-22T08:04:58.531Z,7.45
2023-03-22T08:21:51.080Z,5.82
2023-03-22T08:25:14.890Z,6.25
2023-03-22T08:34:12.999Z,6.18
2023-03-22T08:40:11.853Z,6.22
2023-03-22T08:49:22.215Z,6.45
2023-03-22T08:51:57.862Z,6.47
2023-03-22T08:54:53.548Z,5.85
2023-03-22T08:57:50.675Z,6.50
2023-03-22T09:00:26.030Z,5.53
2023-03-22T09:03:09.376Z,6.78
2023-03-22T09:05:38.640Z,6.85
2023-03-22T09:08:08.071Z,5.78
2023-03-22T09:10:41.374Z,6.57
2023-03-22T09:13:13.703Z,7.53
2023-03-22T09:15:50.595Z,6.35
2023-03-22T09:18:24.684Z,6.05
2023-03-22T09:20:53.658Z,7.90
2023-03-22T09:23:25.823Z,7.00
2023-03-22T09:25:56.639Z,6.65
2023-03-22T09:28:26.572Z,8.20
2023-03-22T09:31:10.196Z,6.20
2023-03-22T09:33:41.694Z,7.43
2023-03-22T09:36:12.043Z,6.80
2023-03-22T09:38:42.196Z,7.13
2023-03-22T09:41:58.097Z,7.40
2023-03-22T09:44:47.171Z,7.80
2023-03-22T09:47:42.290Z,7.25
2023-03-22T09:53:55.659Z,6.53
2023-03-22T09:56:32.799Z,6.20
2023-03-22T09:59:17.370Z,6.80
2023-03-22T10:05:04.319Z,5.82
2023-03-22T10:08:12.029Z,6.07
2023-03-22T10:10:43.658Z,6.38
2023-03-22T10:13:16.601Z,6.15
2023-03-22T10:15:53.229Z,6.25
2023-03-22T10:18:29.690Z,5.60
2023-03-22T10:21:03.255Z,6.30
2023-03-22T10:23:39.595Z,5.43
2023-03-22T10:26:08.072Z,5.45
2023-03-22T10:28:38.921Z,5.75
2023-03-22T10:31:07.310Z,5.70
2023-03-22T10:33:56.149Z,5.97
2023-03-22T10:36:27.255Z,5.68
2023-03-22T10:39:00.792Z,6.70
2023-03-22T10:41:29.760Z,5.38
2023-03-22T10:44:00.888Z,5.40
2023-03-22T10:46:42.401Z,5.90
2023-03-22T10:49:19.233Z,5.57
2023-03-22T10:51:53.413Z,5.63
2023-03-22T10:54:21.938Z,5.47
2023-03-22T10:56:50.092Z,5.40
2023-03-22T10:59:55.538Z,6.72
2023-03-22T11:02:26.634Z,5.05
2023-03-22T11:05:02.240Z,5.35
2023-03-22T11:07:38.109Z,6.10
2023-03-22T11:10:08.453Z,5.88
2023-03-22T11:12:44.117Z,5.72
2023-03-22T11:15:25.579Z,4.85
2023-03-22T11:17:57.747Z,5.80
2023-03-22T11:20:25.579Z,6.05
2023-03-22T11:22:53.372Z,5.68
2023-03-22T11:28:34.586Z,5.82
2023-03-22T11:31:05.929Z,5.85
2023-03-22T11:33:34.652Z,5.97
2023-03-22T11:36:17.049Z,5.90
2023-03-22T11:41:24.905Z,6.13
2023-03-22T11:44:02.612Z,7.15
2023-03-22T11:46:31.599Z,6.25
2023-03-22T11:49:02.531Z,6.22
2023-03-22T11:51:36.302Z,5.18
2023-03-22T11:54:34.438Z,6.55
2023-03-22T11:57:06.036Z,6.45
2023-03-22T11:59:45.951Z,5.97
2023-03-22T12:02:41.898Z,6.35
2023-03-22T12:05:27.351Z,6.32
2023-03-22T12:08:03.774Z,7.20
2023-03-22T12:10:42.061Z,6.97
2023-03-22T12:13:27.067Z,8.13
2023-03-22T12:16:02.053Z,9.02
2023-03-22T12:18:44.922Z,7.25
2023-03-22T12:21:12.650Z,6.43
2023-03-22T12:23:40.467Z,7.20
2023-03-22T12:26:19.593Z,6.68
2023-03-22T12:29:06.184Z,7.13
2023-03-22T12:31:52.767Z,7.28
2023-03-22T12:34:36.385Z,7.93
2023-03-22T12:37:07.766Z,8.43
2023-03-22T12:39:43.460Z,7.22
2023-03-22T12:42:51.848Z,7.18
2023-03-22T12:45:27.030Z,7.93
2023-03-22T12:48:10.707Z,8.88
2023-03-22T12:50:47.631Z,8.90
2023-03-22T12:53:20.667Z,9.20
2023-03-22T12:55:49.835Z,8.88
2023-03-22T12:58:22.559Z,9.60
2023-03-22T13:01:25.718Z,8.77
2023-03-22T13:03:54.989Z,8.95
2023-03-22T13:06:57.663Z,9.23
2023-03-22T13:09:43.509Z,9.30
2023-03-22T13:12:17.335Z,8.77
2023-03-22T13:14:56.788Z,8.15
2023-03-22T13:17:24.682Z,7.78
2023-03-22T13:20:08.061Z,7.07
2023-03-22T13:22:38.867Z,7.85
2023-03-22T13:25:13.030Z,7.80
2023-03-22T13:27:57.920Z,6.55
2023-03-22T13:30:33.409Z,7.07
2023-03-22T13:33:09.892Z,6.95
2023-03-22T13:35:50.156Z,5.30
2023-03-22T13:38:39.314Z,6.03
2023-03-22T13:41:25.976Z,4.97
2023-03-22T13:43:57.787Z,4.40
2023-03-22T13:46:26.149Z,4.90
2023-03-22T13:49:02.877Z,4.22
2023-03-22T13:51:32.669Z,2.65
2023-03-22T13:54:17.950Z,2.55
2023-03-22T13:56:56.473Z,2.45
2023-03-22T13:59:27.522Z,3.28
2023-03-22T14:01:57.831Z,3.28
2023-03-22T14:04:49.048Z,3.80
2023-03-22T14:07:53.690Z,3.00
2023-03-22T14:10:39.145Z,2.83
2023-03-22T14:13:28.378Z,3.10
2023-03-22T14:16:02.760Z,3.08
2023-03-22T14:18:36.626Z,3.47
2023-03-22T14:21:09.496Z,2.20
